createdAt,value
2018-05-17T00:02:16.938Z,12.40
2018-05-17T00:04:44.499Z,14.53
2018-05-17T00:07:12.085Z,9.20
2018-05-17T00:09:40.414Z,11.40
2018-05-17T00:12:07.985Z,7.90
2018-05-17T00:14:35.534Z,8.67
2018-05-17T00:17:03.112Z,10.13
2018-05-17T00:19:30.666Z,9.83
2018-05-17T00:21:58.249Z,12.03
2018-05-17T00:24:25.810Z,7.57
2018-05-17T00:26:53.389Z,10.53
2018-05-17T00:29:21.709Z,12.80
2018-05-17T00:31:49.287Z,16.50
2018-05-17T00:34:16.837Z,8.77
2018-05-17T00:36:44.412Z,15.73
2018-05-17T00:39:11.962Z,9.60
2018-05-17T00:41:39.542Z,18.23
2018-05-17T00:44:07.097Z,12.60
2018-05-17T00:46:34.678Z,12.00
2018-05-17T00:49:02.257Z,13.10
2018-05-17T00:51:29.834Z,11.80
2018-05-17T00:53:57.383Z,8.63
2018-05-17T00:56:24.962Z,22.53
2018-05-17T00:58:52.521Z,13.57
2018-05-17T01:01:20.892Z,12.17
2018-05-17T01:03:48.436Z,12.50
2018-05-17T01:06:16.003Z,16.93
2018-05-17T01:08:43.548Z,12.53
2018-05-17T01:11:11.116Z,15.23
2018-05-17T01:13:38.656Z,8.70
2018-05-17T01:16:06.226Z,9.37
2018-05-17T01:18:33.769Z,14.67
2018-05-17T01:21:01.336Z,9.63
2018-05-17T01:23:28.885Z,8.70
2018-05-17T01:25:56.455Z,17.63
2018-05-17T01:28:24.497Z,8.47
2018-05-17T01:30:52.091Z,14.17
2018-05-17T01:33:19.661Z,11.53
2018-05-17T01:35:47.236Z,14.67
2018-05-17T01:38:25.672Z,11.80
2018-05-17T01:40:53.220Z,14.80
2018-05-17T01:43:20.796Z,16.50
2018-05-17T01:45:48.341Z,13.93
2018-05-17T01:48:15.918Z,20.57
2018-05-17T01:50:44.239Z,16.17
2018-05-17T01:53:11.820Z,13.60
2018-05-17T01:55:39.372Z,16.33
2018-05-17T01:58:06.951Z,14.80
2018-05-17T02:00:34.510Z,15.73
2018-05-17T02:03:02.148Z,14.43
2018-05-17T02:05:29.696Z,20.87
2018-05-17T02:07:57.268Z,17.93
2018-05-17T02:10:24.818Z,19.07
2018-05-17T02:12:52.382Z,17.70
2018-05-17T02:15:19.939Z,16.70
2018-05-17T02:17:47.513Z,14.93
2018-05-17T02:20:15.061Z,15.00
2018-05-17T02:22:42.641Z,17.83
2018-05-17T02:25:10.189Z,16.37
2018-05-17T02:27:38.529Z,16.70
2018-05-17T02:30:06.076Z,20.13
2018-05-17T02:32:33.654Z,17.20
2018-05-17T02:35:01.201Z,17.40
2018-05-17T02:37:28.749Z,15.97
2018-05-17T02:39:56.331Z,18.70
2018-05-17T02:42:23.895Z,17.83
2018-05-17T02:44:51.463Z,18.27
2018-05-17T02:47:19.013Z,17.37
2018-05-17T02:49:46.585Z,20.20
2018-05-17T02:52:14.130Z,17.30
2018-05-17T02:54:41.713Z,16.77
2018-05-17T02:57:09.273Z,21.53
2018-05-17T02:59:36.853Z,16.70
2018-05-17T03:02:05.241Z,19.10
2018-05-17T03:04:33.596Z,28.97
2018-05-17T03:07:01.153Z,23.30
2018-05-17T03:09:28.733Z,18.70
2018-05-17T03:11:57.064Z,19.03
2018-05-17T03:14:24.645Z,20.60
2018-05-17T03:16:52.201Z,16.80
2018-05-17T03:19:19.788Z,19.40
2018-05-17T03:21:48.110Z,18.27
2018-05-17T03:24:15.694Z,23.07
2018-05-17T03:26:43.253Z,23.87
2018-05-17T03:29:10.834Z,20.87
2018-05-17T03:31:38.390Z,17.23
2018-05-17T03:34:06.012Z,27.90
2018-05-17T03:36:33.574Z,29.47
2018-05-17T03:39:01.152Z,20.03
2018-05-17T03:41:28.714Z,22.17
2018-05-17T03:43:56.298Z,29.87
2018-05-17T03:46:24.623Z,24.03
2018-05-17T03:48:52.210Z,25.60
2018-05-17T03:51:19.766Z,21.60
2018-05-17T03:53:47.327Z,22.47
2018-05-17T03:56:14.915Z,24.20
2018-05-17T03:58:43.245Z,23.23
2018-05-17T04:01:22.631Z,30.83
2018-05-17T04:04:03.027Z,23.87
2018-05-17T04:06:41.429Z,21.30
2018-05-17T04:09:09.014Z,22.00
2018-05-17T04:11:36.578Z,20.00
2018-05-17T04:14:04.137Z,22.23
2018-05-17T04:16:31.724Z,19.47
2018-05-17T04:18:59.306Z,20.27
2018-05-17T04:21:26.899Z,19.87
2018-05-17T04:23:54.472Z,17.53
2018-05-17T04:26:22.062Z,18.33
2018-05-17T04:28:49.624Z,22.80
2018-05-17T04:31:17.210Z,19.30
2018-05-17T04:33:44.766Z,21.13
2018-05-17T04:36:12.341Z,21.33
2018-05-17T04:38:39.895Z,22.23
2018-05-17T04:41:07.478Z,21.30
2018-05-17T04:43:35.069Z,23.20
2018-05-17T04:46:03.603Z,22.30
2018-05-17T04:48:31.164Z,24.03
2018-05-17T04:50:58.742Z,28.20
2018-05-17T04:53:26.298Z,23.70
2018-05-17T04:55:53.886Z,25.43
2018-05-17T04:58:21.446Z,21.87
2018-05-17T05:00:49.766Z,22.47
2018-05-17T05:03:17.325Z,24.97
2018-05-17T05:05:44.912Z,22.07
2018-05-17T05:08:13.271Z,25.47
2018-05-17T05:10:40.853Z,23.93
2018-05-17T05:13:08.413Z,25.03
2018-05-17T05:15:36.001Z,21.10
2018-05-17T05:18:04.334Z,26.57
2018-05-17T05:20:31.890Z,18.93
2018-05-17T05:22:59.474Z,28.00
2018-05-17T05:25:27.029Z,20.27
2018-05-17T05:27:54.620Z,27.67
2018-05-17T05:30:22.955Z,23.90
2018-05-17T05:32:50.546Z,23.43
2018-05-17T05:35:18.111Z,24.40
2018-05-17T05:37:46.460Z,26.17
2018-05-17T05:40:14.017Z,20.50
2018-05-17T05:42:41.601Z,20.17
2018-05-17T05:45:09.171Z,18.20
2018-05-17T05:47:37.517Z,21.53
2018-05-17T05:50:05.223Z,17.27
2018-05-17T05:52:33.569Z,16.20
2018-05-17T05:55:01.130Z,14.70
2018-05-17T05:57:28.710Z,15.57
2018-05-17T05:59:57.038Z,16.33
2018-05-17T06:02:24.673Z,18.43
2018-05-17T06:04:52.962Z,16.23
2018-05-17T06:07:20.537Z,23.33
2018-05-17T06:09:48.105Z,29.07
2018-05-17T06:12:15.688Z,84.23
2018-05-17T06:14:43.245Z,35.87
2018-05-17T06:17:10.837Z,28.27
2018-05-17T06:19:38.397Z,25.07
2018-05-17T06:22:06.020Z,22.70
2018-05-17T06:24:33.581Z,20.50
2018-05-17T06:27:01.196Z,20.33
2018-05-17T06:29:28.756Z,31.20
2018-05-17T06:31:56.318Z,50.37
2018-05-17T06:34:23.901Z,42.07
2018-05-17T06:36:51.466Z,37.20
2018-05-17T06:39:19.050Z,40.87
2018-05-17T06:41:46.607Z,35.50
2018-05-17T06:44:14.954Z,33.10
2018-05-17T06:46:42.528Z,33.10
2018-05-17T06:49:10.138Z,35.40
2018-05-17T06:51:37.694Z,34.97
2018-05-17T06:54:05.272Z,36.17
2018-05-17T06:56:32.837Z,33.60
2018-05-17T06:59:00.421Z,38.13
2018-05-17T07:01:28.559Z,27.43
2018-05-17T07:03:56.141Z,28.10
2018-05-17T07:06:23.705Z,26.50
2018-05-17T07:08:51.290Z,25.03
2018-05-17T07:11:18.849Z,25.33
2018-05-17T07:13:47.193Z,23.03
2018-05-17T07:16:14.749Z,24.87
2018-05-17T07:18:42.681Z,27.03
2018-05-17T07:21:09.913Z,24.40
2018-05-17T07:23:38.262Z,27.97
2018-05-17T07:26:05.825Z,20.23
2018-05-17T07:28:33.405Z,21.67
2018-05-17T07:31:00.974Z,21.90
2018-05-17T07:33:28.554Z,23.60
2018-05-17T07:35:56.114Z,24.57
2018-05-17T07:38:23.697Z,21.83
2018-05-17T07:40:51.261Z,26.40
2018-05-17T07:43:18.855Z,26.50
2018-05-17T07:45:47.183Z,31.13
2018-05-17T07:48:14.765Z,27.13
2018-05-17T07:50:42.322Z,24.40
2018-05-17T07:53:09.901Z,33.27
2018-05-17T07:55:38.292Z,26.10
2018-05-17T07:58:05.846Z,26.37
2018-05-17T08:00:33.486Z,28.57
2018-05-17T08:03:01.019Z,28.83
2018-05-17T08:05:28.611Z,45.43
2018-05-17T08:07:56.940Z,23.50
2018-05-17T08:10:24.517Z,24.63
2018-05-17T08:12:52.079Z,36.43
2018-05-17T08:15:19.660Z,22.80
2018-05-17T08:17:47.222Z,18.80
2018-05-17T08:20:15.656Z,26.87
2018-05-17T08:22:43.152Z,36.67
2018-05-17T08:25:10.745Z,25.73
2018-05-17T08:27:38.309Z,35.90
2018-05-17T08:30:05.893Z,31.33
2018-05-17T08:32:34.497Z,36.43
2018-05-17T08:35:02.083Z,40.17
2018-05-17T08:37:30.409Z,38.27
2018-05-17T08:39:58.000Z,39.77
2018-05-17T08:42:25.585Z,41.83
2018-05-17T08:44:53.930Z,41.80
2018-05-17T08:47:21.501Z,41.33
2018-05-17T08:49:49.085Z,48.20
2018-05-17T08:52:17.410Z,40.87
2018-05-17T08:54:44.993Z,49.17
2018-05-17T08:57:12.553Z,47.00
2018-05-17T08:59:40.173Z,49.17
2018-05-17T09:02:07.713Z,60.20
2018-05-17T09:04:35.298Z,49.40
2018-05-17T09:07:02.864Z,48.20
2018-05-17T09:09:30.464Z,39.27
2018-05-17T09:11:58.790Z,44.70
2018-05-17T09:14:26.738Z,47.57
2018-05-17T09:16:54.989Z,46.93
2018-05-17T09:19:22.602Z,51.67
2018-05-17T09:21:50.189Z,47.80
2018-05-17T09:24:17.746Z,51.03
2018-05-17T09:26:45.338Z,45.03
2018-05-17T09:29:12.972Z,40.67
2018-05-17T09:31:40.526Z,43.37
2018-05-17T09:34:08.091Z,42.87
2018-05-17T09:36:37.181Z,40.80
2018-05-17T09:39:05.643Z,40.20
2018-05-17T09:41:33.227Z,56.13
2018-05-17T09:44:00.785Z,43.40
2018-05-17T09:46:28.361Z,44.70
2018-05-17T09:48:56.694Z,32.97
2018-05-17T09:51:24.276Z,44.20
2018-05-17T09:53:51.833Z,40.30
2018-05-17T09:56:19.413Z,48.77
2018-05-17T09:58:47.738Z,45.50
2018-05-17T10:01:15.325Z,42.87
2018-05-17T10:03:42.888Z,42.47
2018-05-17T10:06:10.466Z,38.90
2018-05-17T10:08:38.031Z,40.97
2018-05-17T10:11:05.610Z,41.67
2018-05-17T10:13:33.165Z,43.27
2018-05-17T10:16:00.765Z,56.73
2018-05-17T10:18:28.898Z,48.57
2018-05-17T10:20:56.489Z,45.10
2018-05-17T10:23:24.046Z,49.60
2018-05-17T10:25:51.606Z,45.57
2018-05-17T10:28:19.195Z,52.13
2018-05-17T10:30:46.755Z,53.30
2018-05-17T10:33:14.343Z,42.50
2018-05-17T10:35:41.900Z,55.07
2018-05-17T10:38:10.482Z,47.80
2018-05-17T10:40:38.052Z,54.97
2018-05-17T10:43:05.639Z,46.90
2018-05-17T10:45:33.197Z,54.53
2018-05-17T10:48:01.606Z,54.93
2018-05-17T10:50:29.167Z,50.73
2018-05-17T10:52:56.746Z,45.27
2018-05-17T10:55:24.311Z,42.10
2018-05-17T10:57:51.898Z,78.30
2018-05-17T11:00:19.459Z,50.47
2018-05-17T11:02:47.037Z,44.27
2018-05-17T11:05:14.601Z,46.70
2018-05-17T11:07:42.191Z,52.03
2018-05-17T11:10:10.519Z,55.70
2018-05-17T11:12:38.098Z,57.33
2018-05-17T11:15:05.671Z,45.37
2018-05-17T11:17:33.255Z,46.77
2018-05-17T11:20:00.966Z,54.87
2018-05-17T11:22:28.558Z,45.47
2018-05-17T11:24:56.117Z,54.10
2018-05-17T11:27:23.705Z,55.83
2018-05-17T11:29:51.273Z,46.30
2018-05-17T11:32:18.855Z,44.70
2018-05-17T11:34:46.422Z,44.57
2018-05-17T11:37:14.011Z,37.07
2018-05-17T11:39:41.577Z,51.40
2018-05-17T11:42:09.134Z,51.53
2018-05-17T11:44:37.486Z,43.73
2018-05-17T11:47:05.046Z,55.43
2018-05-17T11:49:32.625Z,51.80
2018-05-17T11:52:00.958Z,43.40
2018-05-17T11:54:28.541Z,41.37
2018-05-17T11:56:56.107Z,60.03
2018-05-17T11:59:23.689Z,50.37
2018-05-17T12:01:51.247Z,54.87
2018-05-17T12:04:19.592Z,41.50
2018-05-17T12:06:47.153Z,43.33
2018-05-17T12:09:14.739Z,39.40
2018-05-17T12:11:43.141Z,42.90
2018-05-17T12:14:10.726Z,39.57
2018-05-17T12:16:38.487Z,42.97
2018-05-17T12:19:06.073Z,43.63
2018-05-17T12:21:34.402Z,43.27
2018-05-17T12:24:01.982Z,48.87
2018-05-17T12:26:29.548Z,50.67
2018-05-17T12:28:57.134Z,56.00
2018-05-17T12:31:24.706Z,41.50
2018-05-17T12:33:52.287Z,43.40
2018-05-17T12:36:19.857Z,44.83
2018-05-17T12:38:47.440Z,43.80
2018-05-17T12:41:14.992Z,39.07
2018-05-17T12:43:42.581Z,38.00
2018-05-17T12:46:10.144Z,42.83
2018-05-17T12:48:37.734Z,36.80
2018-05-17T12:51:05.297Z,43.43
2018-05-17T12:53:33.623Z,46.07
2018-05-17T12:56:01.223Z,46.17
2018-05-17T12:58:28.818Z,36.23
2018-05-17T13:00:56.385Z,41.67
2018-05-17T13:03:23.950Z,43.07
2018-05-17T13:05:51.536Z,36.50
2018-05-17T13:08:19.105Z,63.40
2018-05-17T13:10:46.694Z,43.67
2018-05-17T13:13:14.244Z,43.87
2018-05-17T13:15:42.595Z,48.70
2018-05-17T13:18:10.160Z,38.33
2018-05-17T13:20:37.741Z,35.30
2018-05-17T13:23:05.302Z,44.77
2018-05-17T13:25:33.653Z,37.37
2018-05-17T13:28:01.227Z,35.60
2018-05-17T13:30:28.821Z,45.20
2018-05-17T13:32:56.391Z,90.47
2018-05-17T13:35:23.978Z,41.30
2018-05-17T13:37:52.306Z,37.73
2018-05-17T13:40:19.890Z,35.20
2018-05-17T13:42:47.455Z,63.40
2018-05-17T13:45:15.047Z,32.00
2018-05-17T13:47:42.662Z,47.83
2018-05-17T13:50:10.220Z,39.13
2018-05-17T13:52:37.815Z,39.63
2018-05-17T13:55:06.093Z,47.57
2018-05-17T13:57:33.727Z,36.30
2018-05-17T14:00:01.310Z,43.33
2018-05-17T14:02:28.947Z,44.97
2018-05-17T14:04:57.240Z,39.77
2018-05-17T14:07:24.825Z,36.73
2018-05-17T14:09:52.387Z,39.67
2018-05-17T14:12:19.972Z,35.93
2018-05-17T14:14:48.065Z,44.00
2018-05-17T14:17:15.806Z,39.90
2018-05-17T14:19:43.371Z,33.97
2018-05-17T14:22:10.957Z,40.17
2018-05-17T14:24:38.521Z,37.50
2018-05-17T14:27:06.110Z,42.37
2018-05-17T14:29:33.687Z,36.97
2018-05-17T14:32:02.062Z,36.67
2018-05-17T14:34:29.672Z,36.60
2018-05-17T14:36:57.262Z,37.00
2018-05-17T14:39:24.826Z,42.03
2018-05-17T14:41:53.188Z,42.80
2018-05-17T14:44:20.771Z,46.40
2018-05-17T14:46:48.355Z,38.90
2018-05-17T14:49:15.922Z,44.87
2018-05-17T14:51:43.507Z,47.13
2018-05-17T14:54:11.064Z,35.47
2018-05-17T14:56:38.650Z,48.97
2018-05-17T14:59:06.205Z,41.47
2018-05-17T15:01:33.863Z,40.57
2018-05-17T15:04:01.378Z,42.23
2018-05-17T15:06:28.933Z,44.30
2018-05-17T15:08:56.591Z,38.60
2018-05-17T15:11:24.190Z,39.33
2018-05-17T15:13:52.572Z,28.00
2018-05-17T15:16:20.832Z,34.43
2018-05-17T15:18:48.417Z,39.33
2018-05-17T15:21:15.981Z,44.80
2018-05-17T15:23:43.564Z,32.40
2018-05-17T15:26:14.023Z,34.53
2018-05-17T15:28:41.686Z,34.30
2018-05-17T15:31:09.247Z,34.60
2018-05-17T15:33:36.830Z,37.00
2018-05-17T15:36:04.389Z,32.60
2018-05-17T15:38:31.969Z,32.23
2018-05-17T15:40:59.532Z,34.57
2018-05-17T15:43:27.881Z,31.67
2018-05-17T15:45:55.439Z,36.77
2018-05-17T15:48:23.027Z,38.90
2018-05-17T15:50:51.377Z,36.17
2018-05-17T15:53:18.961Z,29.30
2018-05-17T15:55:46.523Z,27.73
2018-05-17T15:58:14.869Z,29.00
2018-05-17T16:00:42.433Z,28.90
2018-05-17T16:03:10.022Z,41.23
2018-05-17T16:05:37.584Z,32.60
2018-05-17T16:08:05.167Z,28.50
2018-05-17T16:10:32.731Z,28.33
2018-05-17T16:13:00.299Z,40.20
2018-05-17T16:15:27.967Z,31.57
2018-05-17T16:17:55.471Z,35.80
2018-05-17T16:20:23.065Z,28.57
2018-05-17T16:22:50.623Z,50.13
2018-05-17T16:25:18.202Z,30.90
2018-05-17T16:27:45.762Z,39.70
2018-05-17T16:30:13.343Z,26.93
2018-05-17T16:32:40.913Z,40.53
2018-05-17T16:35:08.512Z,30.60
2018-05-17T16:37:36.073Z,28.27
2018-05-17T16:40:03.682Z,28.43
2018-05-17T16:42:31.242Z,35.90
2018-05-17T16:44:59.147Z,32.67
2018-05-17T16:47:27.476Z,26.23
2018-05-17T16:49:55.061Z,27.50
2018-05-17T16:52:22.621Z,29.13
2018-05-17T16:54:51.038Z,29.97
2018-05-17T16:57:18.600Z,25.00
2018-05-17T16:59:46.186Z,38.70
2018-05-17T17:02:13.750Z,34.73
2018-05-17T17:04:41.413Z,30.60
2018-05-17T17:07:08.921Z,37.80
2018-05-17T17:09:36.505Z,35.83
2018-05-17T17:12:04.066Z,39.67
2018-05-17T17:14:31.651Z,26.57
2018-05-17T17:16:59.214Z,27.60
2018-05-17T17:19:26.811Z,32.27
2018-05-17T17:21:54.399Z,30.13
2018-05-17T17:24:21.970Z,31.40
2018-05-17T17:26:49.553Z,28.93
2018-05-17T17:29:17.110Z,37.50
2018-05-17T17:31:44.729Z,28.43
2018-05-17T17:34:12.358Z,34.70
2018-05-17T17:36:39.917Z,32.70
2018-05-17T17:39:07.472Z,39.53
2018-05-17T17:41:35.826Z,38.93
2018-05-17T17:44:03.431Z,27.20
2018-05-17T17:46:31.013Z,37.53
2018-05-17T17:48:58.578Z,38.13
2018-05-17T17:51:26.158Z,38.87
2018-05-17T17:53:53.727Z,25.77
2018-05-17T17:56:21.317Z,26.90
2018-05-17T17:58:49.643Z,27.70
2018-05-17T18:01:17.237Z,27.10
2018-05-17T18:03:44.802Z,29.77
2018-05-17T18:06:13.159Z,24.80
2018-05-17T18:08:40.726Z,24.13
2018-05-17T18:11:08.317Z,26.17
2018-05-17T18:13:35.878Z,32.47
2018-05-17T18:16:03.485Z,30.80
2018-05-17T18:18:32.558Z,28.03
2018-05-17T18:21:00.159Z,33.53
2018-05-17T18:23:27.736Z,25.47
2018-05-17T18:25:55.326Z,26.93
2018-05-17T18:28:22.910Z,30.63
2018-05-17T18:30:50.524Z,29.53
2018-05-17T18:33:19.713Z,26.17
2018-05-17T18:35:47.270Z,30.33
2018-05-17T18:38:15.624Z,23.50
2018-05-17T18:40:43.191Z,33.40
2018-05-17T18:43:11.380Z,30.37
2018-05-17T18:45:38.940Z,34.07
2018-05-17T18:48:07.321Z,31.73
2018-05-17T18:50:34.896Z,28.53
2018-05-17T18:53:02.487Z,27.27
2018-05-17T18:55:30.046Z,30.73
2018-05-17T18:57:57.637Z,28.70
2018-05-17T19:00:25.208Z,30.63
2018-05-17T19:02:53.574Z,29.53
2018-05-17T19:05:21.920Z,27.77
2018-05-17T19:07:49.515Z,32.03
2018-05-17T19:10:17.192Z,29.63
2018-05-17T19:12:45.550Z,37.03
2018-05-17T19:15:13.882Z,36.13
2018-05-17T19:17:41.465Z,29.37
2018-05-17T19:20:09.069Z,27.47
2018-05-17T19:22:36.675Z,39.03
2018-05-17T19:25:04.246Z,31.70
2018-05-17T19:27:31.829Z,42.40
2018-05-17T19:29:59.406Z,38.03
2018-05-17T19:32:27.757Z,34.67
2018-05-17T19:34:55.344Z,44.03
2018-05-17T19:37:23.023Z,42.33
2018-05-17T19:39:50.518Z,34.20
2018-05-17T19:42:18.109Z,32.80
2018-05-17T19:44:46.433Z,44.13
2018-05-17T19:47:14.009Z,37.60
2018-05-17T19:49:41.602Z,28.97
2018-05-17T19:52:09.181Z,35.70
2018-05-17T19:54:36.763Z,38.83
2018-05-17T19:57:04.330Z,40.70
2018-05-17T19:59:31.917Z,35.33
2018-05-17T20:01:59.499Z,29.93
2018-05-17T20:04:27.089Z,40.27
2018-05-17T20:06:54.653Z,49.20
2018-05-17T20:09:22.238Z,45.50
2018-05-17T20:11:49.807Z,55.90
2018-05-17T20:14:17.397Z,42.47
2018-05-17T20:16:44.958Z,37.73
2018-05-17T20:19:13.310Z,41.80
2018-05-17T20:21:40.882Z,41.07
2018-05-17T20:24:08.466Z,42.70
2018-05-17T20:26:36.025Z,43.73
2018-05-17T20:29:03.699Z,45.00
2018-05-17T20:31:31.252Z,40.13
2018-05-17T20:33:58.839Z,50.53
2018-05-17T20:36:26.413Z,68.53
2018-05-17T20:38:53.998Z,40.77
2018-05-17T20:41:21.559Z,39.30
2018-05-17T20:43:49.904Z,35.97
2018-05-17T20:46:17.544Z,34.83
2018-05-17T20:48:45.128Z,45.47
2018-05-17T20:51:12.686Z,43.73
2018-05-17T20:53:40.275Z,36.13
2018-05-17T20:56:08.614Z,56.60
2018-05-17T20:58:36.193Z,42.47
2018-05-17T21:01:03.751Z,34.93
2018-05-17T21:03:31.319Z,32.67
2018-05-17T21:05:58.897Z,39.07
2018-05-17T21:08:27.218Z,47.67
2018-05-17T21:10:54.802Z,51.33
2018-05-17T21:13:22.361Z,50.80
2018-05-17T21:15:49.946Z,42.40
2018-05-17T21:18:18.267Z,46.27
2018-05-17T21:20:45.854Z,44.63
2018-05-17T21:23:13.409Z,36.30
2018-05-17T21:25:41.000Z,40.13
2018-05-17T21:28:09.327Z,38.33
2018-05-17T21:30:36.906Z,60.07
2018-05-17T21:33:04.466Z,40.60
2018-05-17T21:35:32.045Z,41.83
2018-05-17T21:37:59.602Z,41.43
2018-05-17T21:40:27.192Z,41.17
2018-05-17T21:42:55.246Z,45.57
2018-05-17T21:45:22.844Z,32.70
2018-05-17T21:47:50.402Z,43.57
2018-05-17T21:50:18.018Z,37.43
2018-05-17T21:52:46.342Z,44.53
2018-05-17T21:55:13.921Z,39.30
2018-05-17T21:57:41.489Z,31.93
2018-05-17T22:00:09.073Z,33.73
2018-05-17T22:02:37.393Z,31.63
2018-05-17T22:05:04.977Z,36.07
2018-05-17T22:07:32.542Z,52.57
2018-05-17T22:10:00.118Z,43.37
2018-05-17T22:12:27.698Z,51.50
2018-05-17T22:14:56.027Z,48.67
2018-05-17T22:17:23.610Z,41.43
2018-05-17T22:19:51.178Z,44.73
2018-05-17T22:22:19.525Z,50.43
2018-05-17T22:24:47.661Z,47.03
2018-05-17T22:27:15.246Z,38.03
2018-05-17T22:29:42.809Z,47.77
2018-05-17T22:32:10.423Z,36.80
2018-05-17T22:34:38.749Z,49.40
2018-05-17T22:37:06.361Z,34.60
2018-05-17T22:39:33.933Z,34.23
2018-05-17T22:42:01.517Z,36.67
2018-05-17T22:44:29.094Z,44.03
2018-05-17T22:46:57.466Z,67.40
2018-05-17T22:49:25.049Z,50.40
2018-05-17T22:51:53.436Z,45.03
2018-05-17T22:54:21.786Z,38.50
2018-05-17T22:57:01.161Z,45.03
2018-05-17T22:59:28.753Z,36.03
2018-05-17T23:01:56.351Z,42.23
2018-05-17T23:04:23.909Z,55.13
2018-05-17T23:06:51.502Z,46.47
2018-05-17T23:09:19.075Z,39.90
2018-05-17T23:11:46.686Z,44.40
2018-05-17T23:14:14.280Z,38.63
2018-05-17T23:16:42.118Z,44.70
2018-05-17T23:19:09.734Z,35.67
2018-05-17T23:21:37.321Z,33.00
2018-05-17T23:24:04.892Z,43.63
2018-05-17T23:26:32.466Z,58.33
2018-05-17T23:29:00.821Z,40.23
2018-05-17T23:31:28.378Z,36.40
2018-05-17T23:33:55.989Z,32.97
2018-05-17T23:36:23.601Z,42.17
2018-05-17T23:38:51.191Z,33.63
2018-05-17T23:41:30.642Z,32.07
2018-05-17T23:43:58.228Z,38.27
2018-05-17T23:46:25.798Z,31.93
2018-05-17T23:48:53.394Z,39.77
2018-05-17T23:51:20.954Z,30.90
2018-05-17T23:53:49.306Z,31.47
2018-05-17T23:56:16.869Z,29.33
2018-05-17T23:58:44.469Z,26.17
